Norwich, Kansas
Current Conditions -  °F | °C
As of 10:53 AM on Thursday 30 Oct 2014 (Local Time) from KICT Reporting Station
Clear Clear  
Wind Chill: 64°   Ceiling: Unl
Heat Index: 64°   Visibility: 10mi
Dew Point: 36°   Wind: 20mph
Humidity: 35%   Direction: 360°N
Pressure: 30.14"   Gusts: 25mph
Location:  37.46°N, 97.85°W
Report Text: KICT 301553Z 36017G22KT 10SM CLR 18/02 A3014 RMK AO2 SLP202 T01780022
Loading
Personal Weather Stations






























Interactive Weather Map
Tropical Storm Tracking
New forecast layout! Learn more

10-Day Weather Forecast

Advertisements
Track Severe Weather on mobile